Boone Observed Data For Previous 48 Hours

Caption
Day and Hour Reservoir Elevation (behind dam)* Tailwater Elevation (below dam)* Average Hourly Discharge*
9/20/2018 2 AM EDT 1,352.76 1,263.25 3,622
9/20/2018 3 AM EDT 1,352.81 1,263.26 3,375
9/20/2018 4 AM EDT 1,352.87 1,263.22 3,312
9/20/2018 5 AM EDT 1,352.90 1,263.24 3,276
9/20/2018 6 AM EDT 1,352.94 1,263.16 3,362
9/20/2018 7 AM EDT 1,352.96 1,263.21 3,661
9/20/2018 8 AM EDT 1,352.94 1,263.05 3,352
9/20/2018 9 AM EDT 1,352.94 1,263.04 3,030
9/20/2018 10 AM EDT 1,352.94 1,262.95 3,608
9/20/2018 11 AM EDT 1,352.90 1,263.27 3,900
9/20/2018 12 PM EDT 1,352.90 1,263.14 3,739
9/20/2018 1 PM EDT 1,352.88 1,263.02 3,716
9/20/2018 2 PM EDT 1,352.84 1,263.26 3,462
9/20/2018 3 PM EDT 1,352.70 1,264.92 7,898
9/20/2018 4 PM EDT 1,352.50 1,264.93 7,922
9/20/2018 5 PM EDT 1,352.34 1,264.96 7,933
9/20/2018 6 PM EDT 1,352.17 1,264.95 7,920
9/20/2018 7 PM EDT 1,352.03 1,264.93 7,906
9/20/2018 8 PM EDT 1,352.07 1,262.95 3,777
9/20/2018 9 PM EDT 1,352.16 1,263.24 3,635
9/20/2018 10 PM EDT 1,352.24 1,263.21 3,247
9/20/2018 11 PM EDT 1,352.34 1,263.16 3,200
9/21/2018 12 AM EDT 1,352.40 1,263.12 3,420
9/21/2018 1 AM EDT 1,352.49 1,263.25 3,310
9/21/2018 2 AM EDT 1,352.57 1,263.23 3,339
9/21/2018 3 AM EDT 1,352.60 1,263.23 3,349
9/21/2018 4 AM EDT 1,352.75 1,260.35 61
9/21/2018 5 AM EDT 1,352.91 1,260.29 0
9/21/2018 6 AM EDT 1,353.05 1,260.28 0
9/21/2018 7 AM EDT 1,353.11 1,262.77 211
9/21/2018 8 AM EDT 1,353.16 1,263.01 3,366
9/21/2018 9 AM EDT 1,353.16 1,263.14 3,250
9/21/2018 10 AM EDT 1,353.16 1,263.01 3,665
9/21/2018 11 AM EDT 1,353.12 1,262.96 3,478
9/21/2018 12 PM EDT 1,353.12 1,263.01 3,841
9/21/2018 1 PM EDT 1,353.06 1,264.91 4,289
9/21/2018 2 PM EDT 1,352.88 1,264.98 7,938
9/21/2018 3 PM EDT 1,352.72 1,264.97 7,935
9/21/2018 4 PM EDT 1,352.54 1,264.95 7,929
9/21/2018 5 PM EDT 1,352.37 1,264.97 7,948
9/21/2018 6 PM EDT 1,352.19 1,264.95 7,914
9/21/2018 7 PM EDT 1,352.02 1,264.98 7,903
9/21/2018 8 PM EDT 1,352.06 1,263.29 3,454
9/21/2018 9 PM EDT 1,352.15 1,263.02 3,324
9/21/2018 10 PM EDT 1,352.22 1,263.11 3,293
9/21/2018 11 PM EDT 1,352.34 1,263.24 3,545
9/22/2018 12 AM EDT 1,352.41 1,263.23 3,382
9/22/2018 1 AM EDT 1,352.49 1,263.25 3,225
9/22/2018 2 AM EDT 1,352.55 1,263.31 3,421
9/22/2018 3 AM EDT 1,352.60 1,263.24 3,357
9/22/2018 4 AM EDT 1,352.73 1,260.89 59
9/22/2018 5 AM EDT 1,352.87 1,260.74 0
9/22/2018 6 AM EDT 1,352.98 1,260.71 0
9/22/2018 7 AM EDT 1,353.09 1,260.40 0
9/22/2018 8 AM EDT 1,353.15 1,262.63 199
9/22/2018 9 AM EDT 1,353.17 1,263.13 3,363
9/22/2018 10 AM EDT 1,353.16 1,263.01 3,505
9/22/2018 11 AM EDT 1,353.15 1,263.02 3,906
9/22/2018 12 PM EDT 1,353.12 1,263.25 3,766
9/22/2018 1 PM EDT 1,353.11 1,263.26 3,549
9/22/2018 2 PM EDT 1,353.10 1,263.23 3,334
9/22/2018 3 PM EDT 1,353.09 1,263.04 3,232
9/22/2018 4 PM EDT 1,353.08 1,262.94 3,184
9/22/2018 5 PM EDT 1,353.07 1,263.23 3,345

Elevations are in feet above sea level. Discharges are in cubic feet per second and are reported at the end of the hour.